Time;durP1;ratioP1;P1;durP2;ratioP2;P2;SDS_P1;SDS_P2;PMS_P1;PMS_P2;Temp;Humidity;BMP_temperature;BMP_pressure;BME280_temperature;BME280_humidity;BME280_pressure;Samples;Min_cycle;Max_cycle;Signal;HPM_P1;HPM_P2
2022/08/15 00:01:28;;;;;;;9.68;8.77;;;22.50;99.90;;;;;;5069695;28;20189;-57
2022/08/15 00:03:57;;;;;;;11.40;8.85;;;22.40;99.90;;;;;;5049559;28;20045;-56
2022/08/15 00:06:33;;;;;;;10.40;9.38;;;22.50;99.90;;;;;;5064516;28;20057;-57
2022/08/15 00:09:02;;;;;;;10.38;9.38;;;22.40;99.90;;;;;;5075266;28;20036;-56
2022/08/15 00:11:33;;;;;;;11.00;9.98;;;22.40;99.90;;;;;;5078545;28;20043;-56
2022/08/15 00:14:13;;;;;;;9.98;8.98;;;22.40;99.90;;;;;;5074289;28;20101;-57
2022/08/15 00:16:41;;;;;;;10.73;9.73;;;22.40;99.90;;;;;;5063947;28;20089;-57
2022/08/15 00:19:17;;;;;;;10.20;8.98;;;22.40;99.90;;;;;;5060697;28;20051;-56
2022/08/15 00:21:47;;;;;;;9.32;8.48;;;22.40;99.90;;;;;;5080195;28;20052;-57
2022/08/15 00:24:15;;;;;;;10.73;9.77;;;22.30;99.90;;;;;;5067866;28;20067;-58
2022/08/15 00:26:48;;;;;;;10.10;9.10;;;22.30;99.90;;;;;;5072872;28;20043;-56
2022/08/15 00:29:16;;;;;;;10.53;9.43;;;22.30;99.90;;;;;;5073467;28;20084;-56
2022/08/15 00:31:42;;;;;;;10.27;9.23;;;22.20;99.90;;;;;;5058274;28;20048;-56
2022/08/15 00:34:10;;;;;;;10.18;9.27;;;22.20;99.90;;;;;;5073181;28;20044;-56
2022/08/15 00:36:36;;;;;;;10.93;9.82;;;22.20;99.90;;;;;;5068113;28;20570;-56
2022/08/15 00:39:04;;;;;;;14.82;9.25;;;22.10;99.90;;;;;;5072829;28;20131;-53
2022/08/15 00:41:39;;;;;;;10.38;9.48;;;22.00;99.90;;;;;;5064123;28;20071;-56
2022/08/15 00:44:16;;;;;;;12.95;11.60;;;22.00;99.90;;;;;;5060524;28;20097;-56
2022/08/15 00:46:45;;;;;;;11.60;10.45;;;22.00;99.90;;;;;;5068321;28;20045;-55
2022/08/15 00:49:12;;;;;;;11.45;10.38;;;22.00;99.90;;;;;;5068984;28;20044;-56
2022/08/15 00:51:47;;;;;;;12.13;10.77;;;22.00;99.90;;;;;;5070642;28;20036;-54
2022/08/15 00:54:16;;;;;;;11.55;10.45;;;22.00;99.90;;;;;;5066883;28;20185;-54
2022/08/15 00:56:53;;;;;;;12.75;10.82;;;22.00;99.90;;;;;;5053115;28;20032;-57
2022/08/15 00:59:24;;;;;;;10.40;9.38;;;21.90;99.90;;;;;;5065029;28;20049;-52
2022/08/15 01:01:51;;;;;;;13.18;11.68;;;21.90;99.90;;;;;;5065878;28;20110;-57
2022/08/15 01:04:18;;;;;;;13.38;12.00;;;21.90;99.90;;;;;;5063815;28;20032;-58
2022/08/15 01:06:45;;;;;;;11.43;10.32;;;21.90;99.90;;;;;;5053591;28;20506;-57
2022/08/15 01:09:12;;;;;;;12.93;11.45;;;21.80;99.90;;;;;;5054657;28;20051;-56
2022/08/15 01:11:57;;;;;;;11.60;10.40;;;21.80;99.90;;;;;;5063990;28;20516;-58
2022/08/15 01:14:24;;;;;;;13.88;11.60;;;21.80;99.90;;;;;;5059760;28;20040;-57
2022/08/15 01:16:51;;;;;;;12.43;11.23;;;21.70;99.90;;;;;;5062567;28;20113;-57
2022/08/15 01:19:20;;;;;;;14.00;12.18;;;21.70;99.90;;;;;;5071220;28;20197;-57
2022/08/15 01:22:17;;;;;;;15.68;14.05;;;21.70;99.90;;;;;;5071034;28;20080;-57
2022/08/15 01:25:04;;;;;;;12.90;10.75;;;21.70;99.90;;;;;;5068458;28;20564;-57
2022/08/15 01:27:37;;;;;;;13.40;12.18;;;21.60;99.90;;;;;;5069284;28;20036;-56
2022/08/15 01:30:07;;;;;;;12.50;11.20;;;21.60;99.90;;;;;;5071276;28;20047;-56
2022/08/15 01:32:33;;;;;;;15.65;13.88;;;21.60;99.90;;;;;;5069754;28;20040;-56
2022/08/15 01:35:02;;;;;;;13.32;12.07;;;21.60;99.90;;;;;;5066973;28;20502;-56
2022/08/15 01:37:28;;;;;;;13.50;12.30;;;21.50;99.90;;;;;;5069830;28;20039;-55
2022/08/15 01:40:08;;;;;;;13.48;12.23;;;21.50;99.90;;;;;;5072204;28;20481;-56
2022/08/15 01:42:43;;;;;;;17.17;15.32;;;21.50;99.90;;;;;;5074161;28;20040;-54
2022/08/15 01:45:14;;;;;;;14.60;13.10;;;21.50;99.90;;;;;;5069880;28;20032;-55
2022/08/15 01:48:01;;;;;;;16.17;14.48;;;21.50;99.90;;;;;;5075458;28;20124;-54
2022/08/15 01:50:31;;;;;;;15.15;13.65;;;21.50;99.90;;;;;;5071250;28;20483;-52
2022/08/15 01:53:02;;;;;;;16.15;14.38;;;21.40;99.90;;;;;;5067227;28;20067;-52
2022/08/15 01:55:36;;;;;;;16.58;14.88;;;21.40;99.90;;;;;;5079578;28;20032;-57
2022/08/15 01:58:05;;;;;;;12.88;11.68;;;21.40;99.90;;;;;;5072980;28;20043;-54
2022/08/15 02:00:31;;;;;;;16.55;14.75;;;21.40;99.90;;;;;;5068417;28;20467;-56
2022/08/15 02:02:58;;;;;;;16.25;14.57;;;21.30;99.90;;;;;;5075487;28;20040;-55
2022/08/15 02:05:24;;;;;;;15.52;14.13;;;21.30;99.90;;;;;;5049503;28;20381;-55
2022/08/15 02:07:49;;;;;;;15.27;13.75;;;21.20;99.90;;;;;;5068021;28;20170;-57
2022/08/15 02:10:15;;;;;;;15.38;13.85;;;21.20;99.90;;;;;;5075579;28;20211;-56
2022/08/15 02:12:41;;;;;;;18.05;14.52;;;21.20;99.90;;;;;;5071186;28;20031;-54
2022/08/15 02:15:16;;;;;;;17.35;14.90;;;20.50;99.90;;;;;;5052101;28;20044;-57
2022/08/15 02:17:43;;;;;;;13.27;11.88;;;21.10;99.90;;;;;;5058630;28;20071;-58
2022/08/15 02:20:12;;;;;;;13.55;12.30;;;21.10;99.90;;;;;;5077733;28;20045;-53
2022/08/15 02:22:38;;;;;;;15.48;13.93;;;21.20;99.90;;;;;;5073020;28;20040;-54
2022/08/15 02:25:07;;;;;;;18.02;16.23;;;21.10;99.90;;;;;;5063379;28;20458;-55
2022/08/15 02:27:35;;;;;;;15.32;13.75;;;21.10;99.90;;;;;;5069616;28;20055;-56
2022/08/15 02:30:11;;;;;;;15.95;14.45;;;21.10;99.90;;;;;;5060581;28;20322;-58
2022/08/15 02:32:39;;;;;;;18.23;16.50;;;21.00;99.90;;;;;;5068558;28;20241;-54
2022/08/15 02:35:06;;;;;;;21.30;17.65;;;21.00;99.90;;;;;;5070852;28;20052;-55
2022/08/15 02:37:32;;;;;;;19.50;15.65;;;21.00;99.90;;;;;;5075735;28;20047;-51
2022/08/15 02:39:59;;;;;;;16.52;14.93;;;21.00;99.90;;;;;;5073358;28;20414;-52
2022/08/15 02:42:26;;;;;;;17.45;15.20;;;21.00;99.90;;;;;;5076343;28;20097;-52
2022/08/15 02:44:52;;;;;;;22.70;17.42;;;21.00;99.90;;;;;;5057314;28;20070;-54
2022/08/15 02:47:19;;;;;;;17.92;15.27;;;21.00;99.90;;;;;;5069127;28;20044;-54
2022/08/15 02:49:45;;;;;;;18.27;16.42;;;21.00;99.90;;;;;;5057026;28;20520;-54
2022/08/15 02:52:12;;;;;;;20.05;17.55;;;21.00;99.90;;;;;;5072292;28;20055;-55
2022/08/15 02:54:39;;;;;;;19.40;17.40;;;21.00;99.90;;;;;;5074196;28;20040;-51
2022/08/15 02:57:06;;;;;;;16.90;15.00;;;21.00;99.90;;;;;;5065130;28;20036;-53
2022/08/15 02:59:32;;;;;;;18.48;16.48;;;21.00;99.90;;;;;;5069376;28;20050;-57
2022/08/15 03:01:59;;;;;;;15.57;13.98;;;21.00;99.90;;;;;;5069968;28;20169;-57
2022/08/15 03:04:25;;;;;;;16.75;15.25;;;21.00;99.90;;;;;;5053666;28;20041;-55
2022/08/15 03:06:53;;;;;;;20.10;16.40;;;21.00;99.90;;;;;;5071765;28;20100;-55
2022/08/15 03:09:21;;;;;;;16.40;14.75;;;21.00;99.90;;;;;;5074865;28;20052;-55
2022/08/15 03:11:47;;;;;;;16.58;14.85;;;21.00;99.90;;;;;;5072187;28;20028;-53
2022/08/15 03:14:18;;;;;;;19.13;17.23;;;21.00;99.90;;;;;;5073528;28;20036;-56
2022/08/15 03:16:46;;;;;;;18.67;16.77;;;21.00;99.90;;;;;;5059195;28;20218;-55
2022/08/15 03:19:16;;;;;;;20.98;17.98;;;21.00;99.90;;;;;;5074671;28;20044;-53
2022/08/15 03:21:51;;;;;;;19.85;16.20;;;21.00;99.90;;;;;;5068274;28;20128;-53
2022/08/15 03:24:19;;;;;;;18.00;15.10;;;21.00;99.90;;;;;;5075002;28;20127;-55
2022/08/15 03:26:46;;;;;;;21.38;19.27;;;21.00;99.90;;;;;;5062003;28;20036;-54
2022/08/15 03:29:18;;;;;;;21.38;18.90;;;21.00;99.90;;;;;;5053039;28;20119;-52
2022/08/15 03:31:49;;;;;;;17.80;16.00;;;20.90;99.90;;;;;;5061377;28;20062;-55
2022/08/15 03:34:17;;;;;;;20.58;17.80;;;20.90;99.90;;;;;;5050986;28;20391;-54
2022/08/15 03:36:46;;;;;;;21.33;19.15;;;20.80;99.90;;;;;;5057937;28;20109;-55
2022/08/15 03:39:12;;;;;;;21.73;19.55;;;20.80;99.90;;;;;;5063697;28;20504;-55
2022/08/15 03:41:39;;;;;;;23.92;20.27;;;20.90;99.90;;;;;;5062651;28;20059;-55
2022/08/15 03:44:05;;;;;;;21.25;19.08;;;20.80;99.90;;;;;;5070957;28;20115;-55
2022/08/15 03:46:31;;;;;;;22.30;20.00;;;20.80;99.90;;;;;;5065705;28;20119;-57
2022/08/15 03:48:57;;;;;;;21.92;19.73;;;20.80;99.90;;;;;;5034125;28;20043;-56
2022/08/15 03:51:25;;;;;;;19.92;17.00;;;20.80;99.90;;;;;;5065275;28;20089;-56
2022/08/15 03:53:55;;;;;;;22.88;20.48;;;20.80;99.90;;;;;;5057923;28;20043;-56
2022/08/15 03:56:24;;;;;;;17.40;15.45;;;20.70;99.90;;;;;;5072878;22;20041;-83
2022/08/15 03:58:51;;;;;;;18.60;16.33;;;20.70;99.90;;;;;;5021151;28;20053;-84
2022/08/15 04:01:24;;;;;;;22.30;19.27;;;20.70;99.90;;;;;;5029962;28;20033;-84
2022/08/15 04:03:51;;;;;;;20.08;17.40;;;20.60;99.90;;;;;;5024468;28;20037;-83
2022/08/15 04:06:20;;;;;;;20.02;17.67;;;20.70;99.90;;;;;;5045122;28;20037;-83
2022/08/15 04:08:47;;;;;;;24.10;21.50;;;20.60;99.90;;;;;;5043514;28;20043;-84
2022/08/15 04:11:15;;;;;;;20.08;18.00;;;20.60;99.90;;;;;;5028244;28;20298;-84
2022/08/15 04:13:42;;;;;;;21.85;19.35;;;20.60;99.90;;;;;;5026985;28;20063;-84
2022/08/15 04:16:08;;;;;;;24.42;20.85;;;20.60;99.90;;;;;;5038822;28;20049;-84
2022/08/15 04:18:34;;;;;;;19.42;17.40;;;20.60;99.90;;;;;;5027967;28;20037;-84
2022/08/15 04:21:02;;;;;;;22.75;20.33;;;20.60;99.90;;;;;;5028346;28;20051;-84
2022/08/15 04:23:29;;;;;;;22.13;19.25;;;20.60;99.90;;;;;;5049501;28;20098;-84
2022/08/15 04:25:55;;;;;;;22.60;20.17;;;20.60;99.90;;;;;;5045028;28;20041;-84
2022/08/15 04:28:23;;;;;;;21.75;19.60;;;20.50;99.90;;;;;;5011371;28;20524;-84
2022/08/15 04:30:49;;;;;;;19.60;17.70;;;20.50;99.90;;;;;;5022686;28;20047;-84
2022/08/15 04:33:28;;;;;;;21.88;19.38;;;20.50;99.90;;;;;;5025773;28;20404;-84
2022/08/15 04:36:04;;;;;;;24.35;20.50;;;20.50;99.90;;;;;;5033525;28;20048;-84
2022/08/15 04:38:32;;;;;;;22.40;20.20;;;20.50;99.90;;;;;;5028133;28;20124;-84
2022/08/15 04:40:59;;;;;;;18.70;16.80;;;20.50;99.90;;;;;;5013429;28;20045;-84
2022/08/15 04:43:25;;;;;;;20.05;18.00;;;20.40;99.90;;;;;;5022564;28;20116;-84
2022/08/15 04:45:52;;;;;;;18.58;16.58;;;20.50;99.90;;;;;;5007293;28;20037;-84
2022/08/15 04:48:18;;;;;;;20.90;18.70;;;20.50;99.90;;;;;;5004878;28;20626;-84
2022/08/15 04:50:48;;;;;;;22.70;20.15;;;20.50;99.90;;;;;;4989680;28;20033;-84
2022/08/15 04:53:14;;;;;;;21.27;19.15;;;20.50;99.90;;;;;;5020598;28;20080;-84
2022/08/15 04:55:42;;;;;;;21.25;19.05;;;20.50;99.90;;;;;;5007490;28;20044;-84
2022/08/15 04:58:09;;;;;;;24.15;20.90;;;20.50;99.90;;;;;;5005776;28;20420;-84
2022/08/15 05:00:40;;;;;;;20.85;18.65;;;20.50;99.90;;;;;;5002904;28;20037;-84
2022/08/15 05:03:08;;;;;;;20.55;18.45;;;20.50;99.90;;;;;;5022855;28;20049;-84
2022/08/15 05:05:37;;;;;;;25.17;22.27;;;20.60;99.90;;;;;;5024728;28;20033;-84
2022/08/15 05:08:04;;;;;;;22.92;19.60;;;20.60;99.90;;;;;;5023427;28;20037;-89
2022/08/15 05:10:30;;;;;;;23.48;20.98;;;20.60;99.90;;;;;;5006377;28;20037;-90
2022/08/15 05:12:55;;;;;;;20.83;18.73;;;20.70;99.90;;;;;;5029588;28;20045;-89
2022/08/15 05:15:22;;;;;;;23.60;20.05;;;20.70;99.90;;;;;;4995707;28;20026;-89
2022/08/15 05:17:49;;;;;;;23.17;19.42;;;20.80;99.90;;;;;;5027044;28;20060;-89
2022/08/15 05:20:17;;;;;;;22.98;20.58;;;20.80;99.90;;;;;;5022941;28;20037;-89
2022/08/15 05:22:59;;;;;;;20.30;18.20;;;20.80;99.90;;;;;;5027844;28;20117;-89
2022/08/15 05:25:25;;;;;;;20.48;17.35;;;20.90;99.90;;;;;;5043522;28;20403;-90
2022/08/15 05:27:52;;;;;;;20.33;18.10;;;20.90;99.90;;;;;;4994251;28;20135;-89
2022/08/15 05:30:19;;;;;;;22.17;19.13;;;21.00;99.90;;;;;;5024605;28;20048;-90
2022/08/15 05:33:04;;;;;;;21.58;19.38;;;21.00;99.90;;;;;;5026016;28;20033;-89
2022/08/15 05:35:34;;;;;;;21.63;19.33;;;21.10;99.90;;;;;;5028723;28;20046;-90
2022/08/15 05:38:04;;;;;;;19.83;17.83;;;21.10;99.90;;;;;;5031540;28;20400;-89
2022/08/15 05:40:46;;;;;;;21.35;15.52;;;21.20;99.90;;;;;;5043748;28;20049;-90
2022/08/15 05:43:21;;;;;;;20.23;15.80;;;21.20;99.90;;;;;;5036746;28;20064;-91
2022/08/15 05:46:29;;;;;;;20.58;18.48;;;21.30;99.90;;;;;;5039268;28;20049;-89
2022/08/15 05:49:32;;;;;;;18.10;16.30;;;21.30;99.90;;;;;;4972174;28;20046;-90
2022/08/15 05:52:22;;;;;;;20.27;18.02;;;21.40;99.90;;;;;;5023818;28;20038;-90
2022/08/15 05:55:13;;;;;;;18.75;16.75;;;21.40;99.90;;;;;;5040959;28;20103;-89
2022/08/15 05:57:48;;;;;;;21.90;19.60;;;21.50;99.90;;;;;;5049584;28;20435;-90
2022/08/15 06:00:15;;;;;;;20.38;18.23;;;21.50;99.90;;;;;;5042001;28;20038;-90
2022/08/15 06:03:15;;;;;;;17.23;15.45;;;21.50;99.90;;;;;;5031779;28;20041;-89
2022/08/15 06:05:54;;;;;;;22.02;18.88;;;21.60;99.90;;;;;;5045692;28;20125;-89
2022/08/15 06:08:26;;;;;;;22.23;18.75;;;21.60;99.90;;;;;;5037219;28;20076;-89
2022/08/15 06:10:54;;;;;;;20.38;18.38;;;21.70;99.90;;;;;;5031117;28;20413;-89
2022/08/15 06:13:28;;;;;;;18.00;16.20;;;21.70;99.90;;;;;;5040698;28;20045;-89
2022/08/15 06:16:04;;;;;;;20.33;18.02;;;21.80;99.90;;;;;;5027661;28;20041;-89
2022/08/15 06:18:34;;;;;;;19.40;17.13;;;21.80;99.90;;;;;;5047328;28;20043;-89
2022/08/15 06:21:19;;;;;;;19.67;17.52;;;21.80;99.90;;;;;;5030550;28;20040;-89
2022/08/15 06:24:22;;;;;;;18.85;16.98;;;21.80;99.90;;;;;;5025402;28;20064;-89
2022/08/15 06:27:12;;;;;;;18.20;15.93;;;21.90;99.90;;;;;;5029201;28;20118;-89
2022/08/15 06:30:16;;;;;;;18.67;16.70;;;21.90;99.90;;;;;;5027353;28;20029;-89
2022/08/15 06:32:51;;;;;;;20.98;18.85;;;22.00;99.90;;;;;;4975312;28;20639;-90
2022/08/15 06:35:28;;;;;;;18.50;16.60;;;22.60;99.90;;;;;;5024143;28;20101;-89
2022/08/15 06:38:07;;;;;;;19.23;16.63;;;22.10;99.90;;;;;;5031141;28;20033;-89
2022/08/15 06:40:57;;;;;;;18.25;16.45;;;22.10;99.90;;;;;;5021787;28;20120;-90
2022/08/15 06:43:23;;;;;;;15.70;14.00;;;22.20;99.90;;;;;;5027059;28;20392;-90
2022/08/15 06:45:54;;;;;;;19.27;17.27;;;22.30;99.90;;;;;;5021017;28;20301;-89
2022/08/15 06:48:24;;;;;;;22.13;15.60;;;22.40;99.90;;;;;;5020447;28;20043;-89
2022/08/15 06:50:53;;;;;;;17.17;15.48;;;22.40;99.90;;;;;;5044006;28;20404;-90
2022/08/15 06:53:25;;;;;;;19.17;17.27;;;22.60;99.90;;;;;;5030032;28;20059;-89
2022/08/15 06:55:59;;;;;;;16.38;14.82;;;22.70;99.90;;;;;;5026735;28;20049;-89
2022/08/15 06:58:42;;;;;;;18.77;16.38;;;22.70;99.90;;;;;;5032536;28;20029;-90
2022/08/15 07:01:27;;;;;;;17.65;15.82;;;22.90;99.90;;;;;;5042194;28;20047;-90
2022/08/15 07:04:30;;;;;;;18.77;16.88;;;22.90;99.90;;;;;;5028020;28;20136;-89
2022/08/15 07:07:24;;;;;;;18.95;17.08;;;22.90;99.90;;;;;;5025395;28;20041;-89
2022/08/15 07:10:15;;;;;;;16.55;14.85;;;22.90;99.90;;;;;;5030215;28;20120;-90
2022/08/15 07:13:00;;;;;;;16.05;14.40;;;23.10;99.90;;;;;;5031580;28;20421;-89
2022/08/15 07:15:53;;;;;;;15.60;14.10;;;23.10;99.90;;;;;;5042222;28;20041;-90
2022/08/15 07:18:27;;;;;;;18.52;16.63;;;23.30;99.90;;;;;;4996616;28;20115;-89
2022/08/15 07:21:05;;;;;;;15.90;14.30;;;23.40;99.90;;;;;;5041519;28;20594;-89
2022/08/15 07:23:33;;;;;;;16.85;15.05;;;23.60;99.90;;;;;;5024713;28;20037;-89
2022/08/15 07:26:08;;;;;;;14.73;12.77;;;23.70;99.90;;;;;;5042338;28;20045;-90
2022/08/15 07:28:37;;;;;;;15.52;13.30;;;23.70;99.90;;;;;;5027815;28;20033;-90
2022/08/15 07:31:33;;;;;;;14.85;13.35;;;23.80;99.90;;;;;;5023099;28;20095;-89
2022/08/15 07:34:22;;;;;;;13.82;12.07;;;23.90;99.90;;;;;;5026024;28;20123;-89
2022/08/15 07:36:58;;;;;;;13.57;12.18;;;24.00;99.90;;;;;;5024500;28;20041;-89
2022/08/15 07:39:34;;;;;;;13.20;11.90;;;24.00;99.90;;;;;;5023134;28;20518;-90
2022/08/15 07:42:11;;;;;;;14.27;12.88;;;24.10;99.90;;;;;;5027520;28;20049;-90
2022/08/15 07:44:37;;;;;;;14.95;13.43;;;24.10;99.90;;;;;;5025038;28;20056;-90
2022/08/15 07:47:11;;;;;;;16.17;13.32;;;24.20;99.90;;;;;;5030509;28;20037;-89
2022/08/15 07:49:38;;;;;;;17.02;14.52;;;24.20;99.90;;;;;;5031630;28;20522;-90
2022/08/15 07:52:06;;;;;;;13.73;12.32;;;24.20;99.90;;;;;;5047033;28;20055;-90
2022/08/15 07:54:43;;;;;;;12.02;10.88;;;24.20;99.90;;;;;;5027548;28;20133;-91
2022/08/15 07:57:23;;;;;;;13.95;12.48;;;24.30;99.90;;;;;;5022900;28;20033;-89
2022/08/15 08:00:10;;;;;;;14.73;13.23;;;24.30;99.90;;;;;;5049102;28;20051;-89
2022/08/15 08:02:57;;;;;;;14.35;12.85;;;24.40;99.90;;;;;;5025398;28;20041;-90
2022/08/15 08:05:27;;;;;;;13.45;12.15;;;24.50;99.90;;;;;;5023959;28;20059;-89
2022/08/15 08:07:54;;;;;;;16.42;13.30;;;24.50;99.90;;;;;;5041385;28;20151;-90
2022/08/15 08:10:31;;;;;;;15.15;13.60;;;24.60;99.90;;;;;;5023482;28;20408;-90
2022/08/15 08:13:09;;;;;;;13.68;12.27;;;24.80;99.90;;;;;;5042513;28;20043;-90
2022/08/15 08:15:55;;;;;;;13.00;11.60;;;24.90;99.90;;;;;;5024675;28;20040;-89
2022/08/15 08:18:41;;;;;;;13.32;11.82;;;25.10;99.90;;;;;;5037138;28;20056;-89
2022/08/15 08:21:13;;;;;;;12.18;10.88;;;25.20;99.90;;;;;;5025355;28;20045;-89
2022/08/15 08:23:53;;;;;;;12.35;11.07;;;25.30;99.70;;;;;;5048501;28;20083;-90
2022/08/15 08:26:54;;;;;;;15.57;11.73;;;25.40;99.50;;;;;;5044005;28;20435;-90
2022/08/15 08:29:38;;;;;;;12.32;11.05;;;25.50;99.40;;;;;;5002272;28;20049;-88
2022/08/15 08:32:28;;;;;;;13.27;11.50;;;25.70;99.70;;;;;;5034510;28;20045;-89
2022/08/15 08:35:06;;;;;;;12.48;11.25;;;25.80;99.50;;;;;;5025632;28;20210;-89
2022/08/15 08:37:51;;;;;;;10.95;9.98;;;25.30;99.20;;;;;;5035520;28;20116;-90
2022/08/15 08:43:43;;;;;;;13.30;11.90;;;26.00;98.80;;;;;;5034335;28;20317;-90
2022/08/15 08:46:30;;;;;;;13.80;11.52;;;26.10;98.50;;;;;;5025736;28;20495;-90
2022/08/15 08:49:11;;;;;;;12.60;10.80;;;26.20;98.20;;;;;;5042801;28;20449;-89
2022/08/15 08:52:02;;;;;;;13.57;11.15;;;26.30;98.00;;;;;;5044055;28;20079;-90
2022/08/15 08:54:53;;;;;;;10.55;9.45;;;26.40;98.10;;;;;;5037186;28;20040;-89
2022/08/15 08:57:24;;;;;;;10.68;9.35;;;26.50;97.90;;;;;;5053705;28;20044;-88
2022/08/15 09:00:20;;;;;;;14.13;11.93;;;26.60;98.00;;;;;;5025531;28;20052;-90
2022/08/15 09:02:54;;;;;;;14.23;12.20;;;26.90;97.70;;;;;;5021660;28;20582;-89
2022/08/15 09:05:42;;;;;;;13.77;11.68;;;26.90;97.10;;;;;;5039079;28;20061;-88
2022/08/15 09:08:15;;;;;;;13.88;10.95;;;26.90;96.80;;;;;;5016140;28;20068;-89
2022/08/15 09:10:44;;;;;;;14.52;13.07;;;26.90;96.90;;;;;;5040562;28;20076;-90
2022/08/15 09:16:00;;;;;;;14.32;11.70;;;26.90;96.30;;;;;;5040645;28;20045;-90
2022/08/15 09:18:35;;;;;;;13.77;12.10;;;27.20;96.40;;;;;;5034410;28;20044;-90
2022/08/15 09:21:03;;;;;;;13.23;11.90;;;27.40;96.50;;;;;;5027821;28;20447;-89
2022/08/15 09:23:35;;;;;;;13.27;11.73;;;27.60;95.90;;;;;;5036119;28;20123;-89
2022/08/15 09:26:25;;;;;;;13.70;11.43;;;27.70;95.50;;;;;;5041246;28;20045;-89
2022/08/15 09:29:12;;;;;;;12.70;11.23;;;27.70;95.30;;;;;;5024917;28;20311;-89
2022/08/15 09:31:41;;;;;;;13.93;12.52;;;27.80;95.50;;;;;;5024814;28;20414;-90
2022/08/15 09:34:10;;;;;;;13.55;11.80;;;27.80;94.70;;;;;;5024619;28;20045;-89
2022/08/15 09:37:08;;;;;;;14.73;13.25;;;27.90;95.00;;;;;;5022191;28;20207;-89
2022/08/15 09:39:44;;;;;;;13.02;11.27;;;28.00;94.40;;;;;;5033381;28;20043;-90
2022/08/15 09:42:31;;;;;;;15.50;11.48;;;28.00;94.00;;;;;;5024724;28;20116;-89
2022/08/15 09:45:34;;;;;;;15.90;11.77;;;28.10;94.00;;;;;;5024062;28;20041;-90
2022/08/15 09:48:03;;;;;;;14.48;12.98;;;28.20;94.20;;;;;;5018500;28;20041;-90
2022/08/15 09:50:53;;;;;;;14.40;11.57;;;28.30;94.20;;;;;;5037658;28;20150;-87
2022/08/15 09:53:28;;;;;;;13.05;11.68;;;28.40;93.80;;;;;;5026897;28;20103;-89
2022/08/15 09:56:03;;;;;;;13.93;12.48;;;28.50;93.10;;;;;;5020150;28;20293;-90
2022/08/15 09:58:34;;;;;;;13.10;11.80;;;28.40;93.70;;;;;;5066761;22;20049;-55
2022/08/15 10:01:06;;;;;;;13.18;11.85;;;28.50;93.80;;;;;;5040013;28;20750;-54
2022/08/15 10:03:44;;;;;;;12.82;11.60;;;28.60;93.70;;;;;;5012022;28;20095;-54
2022/08/15 10:06:15;;;;;;;13.43;12.13;;;28.70;93.20;;;;;;5034774;28;20040;-53
2022/08/15 10:08:53;;;;;;;12.77;11.45;;;28.70;92.90;;;;;;5036935;28;20049;-55
2022/08/15 10:11:40;;;;;;;12.40;11.10;;;28.80;93.20;;;;;;5039842;28;20221;-54
2022/08/15 10:14:49;;;;;;;13.80;10.75;;;29.00;93.10;;;;;;5029315;28;20056;-54
2022/08/15 10:17:34;;;;;;;12.65;11.38;;;29.10;92.60;;;;;;5036997;28;20235;-55
2022/08/15 10:20:15;;;;;;;10.50;9.50;;;29.00;91.20;;;;;;5029426;28;20041;-56
2022/08/15 10:22:59;;;;;;;11.70;10.52;;;29.00;92.00;;;;;;5030302;28;20037;-56
2022/08/15 10:25:36;;;;;;;12.68;11.23;;;29.10;92.00;;;;;;5026426;28;20043;-55
2022/08/15 10:28:06;;;;;;;13.10;11.10;;;29.20;91.80;;;;;;5029257;28;20064;-54
2022/08/15 10:30:46;;;;;;;12.35;10.57;;;29.20;92.40;;;;;;5035503;28;20094;-56
2022/08/15 10:33:35;;;;;;;13.10;11.90;;;29.20;92.40;;;;;;5034634;28;20168;-54
2022/08/15 10:36:04;;;;;;;12.60;11.50;;;29.30;91.90;;;;;;5018284;28;20044;-53
2022/08/15 10:38:31;;;;;;;11.70;10.50;;;29.50;92.20;;;;;;5033672;28;20041;-55
2022/08/15 10:41:13;;;;;;;11.00;10.00;;;29.40;92.00;;;;;;5033598;28;20256;-56
2022/08/15 10:44:00;;;;;;;10.05;8.77;;;29.30;91.20;;;;;;5031148;28;20099;-54
2022/08/15 10:46:49;;;;;;;10.00;9.00;;;29.30;91.70;;;;;;5037473;28;20472;-55
2022/08/15 10:49:46;;;;;;;10.15;8.85;;;29.20;91.70;;;;;;5027749;28;20060;-55
2022/08/15 10:52:32;;;;;;;9.55;8.75;;;29.40;91.10;;;;;;5050299;28;20047;-55
2022/08/15 10:55:22;;;;;;;11.05;8.85;;;29.40;90.90;;;;;;5006581;28;20033;-56
2022/08/15 10:57:53;;;;;;;9.98;8.98;;;29.40;91.00;;;;;;5042220;28;20033;-53
2022/08/15 11:00:56;;;;;;;10.63;9.57;;;29.50;90.80;;;;;;5030328;28;20048;-55
2022/08/15 11:03:34;;;;;;;11.52;10.13;;;29.40;90.20;;;;;;5038597;28;20565;-53
2022/08/15 11:06:06;;;;;;;11.00;9.98;;;29.30;90.50;;;;;;5033143;28;20084;-50
2022/08/15 11:08:36;;;;;;;12.13;10.97;;;29.10;91.10;;;;;;5034120;28;20048;-55
2022/08/15 11:11:10;;;;;;;10.75;9.65;;;29.00;91.40;;;;;;5040683;28;20099;-55
2022/08/15 11:13:37;;;;;;;11.82;10.48;;;28.90;91.40;;;;;;5033992;28;20041;-55
2022/08/15 11:16:35;;;;;;;11.05;9.85;;;28.80;91.50;;;;;;5031739;28;20480;-54
2022/08/15 11:19:19;;;;;;;10.77;9.77;;;28.70;91.40;;;;;;5035942;28;20048;-54
2022/08/15 11:21:55;;;;;;;11.02;10.02;;;28.70;91.70;;;;;;5026095;28;20427;-54
2022/08/15 11:24:37;;;;;;;10.73;9.73;;;28.60;91.70;;;;;;5032258;28;20124;-54
2022/08/15 11:27:21;;;;;;;10.82;9.73;;;28.60;92.00;;;;;;5033581;28;20042;-54
2022/08/15 11:29:48;;;;;;;11.65;10.52;;;28.60;92.20;;;;;;5030536;28;20303;-52
2022/08/15 11:32:29;;;;;;;12.52;11.23;;;28.50;92.10;;;;;;5032388;28;20180;-55
2022/08/15 11:34:56;;;;;;;14.77;13.32;;;28.50;92.70;;;;;;5025094;28;20047;-55
2022/08/15 11:37:28;;;;;;;13.63;12.27;;;28.40;93.40;;;;;;5034407;28;20125;-53
2022/08/15 11:40:34;;;;;;;16.30;14.57;;;28.30;94.10;;;;;;5036604;28;20051;-51
2022/08/15 11:43:02;;;;;;;15.63;13.73;;;28.30;94.70;;;;;;4997947;28;20041;-54
2022/08/15 11:45:46;;;;;;;16.90;15.20;;;28.30;95.10;;;;;;5024602;28;20625;-54
2022/08/15 11:48:13;;;;;;;;;;;28.20;95.30;;;;;;5037455;28;20124;-54
2022/08/15 11:50:53;;;;;;;16.70;14.43;;;28.10;95.80;;;;;;5028802;28;19924;-55
2022/08/15 11:53:19;;;;;;;17.65;15.80;;;28.10;95.70;;;;;;5033061;28;20551;-55
2022/08/15 11:55:46;;;;;;;20.55;16.48;;;28.10;95.80;;;;;;5033842;28;20051;-52
2022/08/15 11:58:12;;;;;;;20.20;16.52;;;28.10;95.60;;;;;;5035634;28;20082;-54
2022/08/15 12:00:40;;;;;;;17.45;15.75;;;28.10;95.40;;;;;;5031124;28;20118;-54
2022/08/15 12:03:31;;;;;;;18.17;16.42;;;28.10;95.50;;;;;;5032440;28;20033;-54
2022/08/15 12:06:18;;;;;;;19.50;15.95;;;28.10;95.50;;;;;;5031402;28;20354;-53
2022/08/15 12:08:46;;;;;;;17.05;15.20;;;28.10;95.50;;;;;;5024768;28;20048;-55
2022/08/15 12:11:25;;;;;;;19.50;17.60;;;28.30;95.80;;;;;;5026748;28;20061;-55
2022/08/15 12:14:00;;;;;;;17.90;16.10;;;28.30;95.50;;;;;;5024900;28;20537;-54
2022/08/15 12:16:43;;;;;;;17.02;15.20;;;28.30;95.20;;;;;;5027605;28;20034;-55
2022/08/15 12:19:37;;;;;;;17.73;14.35;;;28.30;95.00;;;;;;5014695;28;20048;-55
2022/08/15 12:22:08;;;;;;;;;;;28.20;94.10;;;;;;5005820;28;20059;-51
2022/08/15 12:24:36;;;;;;;13.48;11.38;;;28.10;94.00;;;;;;5014381;28;19967;-54
2022/08/15 12:27:02;;;;;;;12.75;9.73;;;28.00;93.80;;;;;;5024875;28;20609;-55
2022/08/15 12:29:33;;;;;;;14.00;10.90;;;28.00;93.90;;;;;;5021746;28;20045;-55
2022/08/15 12:32:02;;;;;;;11.77;10.38;;;27.90;93.20;;;;;;5011402;28;20053;-51
2022/08/15 12:34:34;;;;;;;11.82;10.70;;;27.80;93.30;;;;;;5030820;28;20423;-51
2022/08/15 12:37:08;;;;;;;11.13;9.25;;;27.70;93.10;;;;;;5026116;28;20033;-53
2022/08/15 12:39:38;;;;;;;11.23;8.77;;;27.60;93.00;;;;;;5035378;28;20096;-55
2022/08/15 12:42:04;;;;;;;10.32;9.15;;;27.60;93.30;;;;;;5030515;28;20088;-51
2022/08/15 12:44:36;;;;;;;12.43;8.18;;;27.60;93.20;;;;;;5031701;28;20044;-55
2022/08/15 12:47:02;;;;;;;10.40;7.07;;;27.50;93.20;;;;;;5034624;28;20068;-51
2022/08/15 12:49:28;;;;;;;8.23;7.10;;;27.40;93.10;;;;;;5023165;28;20083;-51
2022/08/15 12:51:53;;;;;;;7.28;6.57;;;27.30;93.00;;;;;;5017768;28;20044;-53
2022/08/15 12:54:19;;;;;;;11.02;6.82;;;27.10;93.00;;;;;;5035970;28;20132;-55
2022/08/15 12:56:45;;;;;;;8.20;5.85;;;27.00;93.10;;;;;;5021163;28;20127;-54
2022/08/15 12:59:12;;;;;;;9.32;7.22;;;27.00;93.20;;;;;;5033532;28;20655;-51
2022/08/15 13:01:41;;;;;;;7.85;6.30;;;27.00;93.10;;;;;;5036074;28;20364;-51
2022/08/15 13:04:10;;;;;;;7.63;5.53;;;27.00;93.00;;;;;;5030752;28;20041;-51
2022/08/15 13:06:36;;;;;;;7.15;4.93;;;26.90;92.90;;;;;;5033932;28;20037;-52
2022/08/15 13:09:07;;;;;;;5.80;5.03;;;26.90;92.60;;;;;;5035798;28;20049;-53
2022/08/15 13:11:35;;;;;;;6.88;4.25;;;26.90;91.60;;;;;;5034368;28;20049;-54
2022/08/15 13:14:01;;;;;;;6.38;4.32;;;27.00;92.00;;;;;;5015711;28;20041;-52